DGAA/ACC METAR and TAF weather

Enter ICAO airport designator
Station Type Date Time Source
DGAA METAR 2021/07/29 01:00 UTC NOAA

DGAA 290100Z 23006KT CAVOK 24/23 Q1013 NOSIG


Station Type Date Time Source
DGAA Decoded METAR 2021/07/29 01:00 UTC NOAA

Accra, Ghana (DGAA) 05-36N 000-10W 69M
Jul 28, 2021 - 09:00 PM EDT / 2021.07.29 0100 UTC
Wind: from the SW (230 degrees) at 7 MPH (6 KT):0
Visibility: greater than 7 mile(s):0
Temperature: 75 F (24 C)
Dew Point: 73 F (23 C)
Relative Humidity: 94%
Pressure (altimeter): 29.91 in. Hg (1013 hPa)
ob: DGAA 290100Z 23006KT CAVOK 24/23 Q1013 NOSIG
cycle: 1

Station Type Date Time Source
DGAA TAF 2021/07/28 18:27 UTC NOAA

TAF TAF DGAA 281700Z 2818/2924 20010KT 9999 FEW014
BECMG 2900/2902 26008KT
TEMPO 2906/2909 7000
BECMG 2910/2912 20015KT

Example: see airport list